createdAt,value
2023-05-20T00:01:34.452Z,101510.25
2023-05-20T00:04:02.285Z,101510.53
2023-05-20T00:06:30.687Z,101511.72
2023-05-20T00:08:59.823Z,101507.81
2023-05-20T00:11:27.892Z,101500.69
2023-05-20T00:13:55.647Z,101507.09
2023-05-20T00:16:23.729Z,101501.00
2023-05-20T00:18:51.523Z,101503.34
2023-05-20T00:21:19.575Z,101493.66
2023-05-20T00:23:47.308Z,101490.94
2023-05-20T00:26:15.584Z,101488.59
2023-05-20T00:28:44.525Z,101496.75
2023-05-20T00:31:12.657Z,101488.47
2023-05-20T00:33:40.392Z,101493.00
2023-05-20T00:36:08.826Z,101487.16
2023-05-20T00:38:36.562Z,101486.19
2023-05-20T00:41:04.614Z,101483.56
2023-05-20T00:43:32.399Z,101491.44
2023-05-20T00:46:01.948Z,101489.75
2023-05-20T00:48:43.303Z,101486.38
2023-05-20T00:51:13.521Z,101490.09
2023-05-20T00:53:42.696Z,101487.16
2023-05-20T00:56:10.881Z,101484.41
2023-05-20T00:58:41.452Z,101480.38
2023-05-20T01:01:09.515Z,101475.28
2023-05-20T01:03:37.377Z,101484.06
2023-05-20T01:06:05.499Z,101486.00
2023-05-20T01:08:34.197Z,101487.97
2023-05-20T01:11:09.259Z,101484.69
2023-05-20T01:13:58.145Z,101487.38
2023-05-20T01:16:26.513Z,101486.13
2023-05-20T01:18:58.067Z,101482.72
2023-05-20T01:21:30.676Z,101490.56
2023-05-20T01:23:58.461Z,101487.19
2023-05-20T01:26:27.272Z,101493.19
2023-05-20T01:28:58.151Z,101486.19
2023-05-20T01:31:31.764Z,101487.81
2023-05-20T01:34:00.733Z,101494.69
2023-05-20T01:36:31.475Z,101489.34
2023-05-20T01:39:00.913Z,101489.00
2023-05-20T01:41:30.883Z,101491.75
2023-05-20T01:43:59.442Z,101499.59
2023-05-20T01:46:27.461Z,101494.13
2023-05-20T01:48:55.220Z,101496.63
2023-05-20T01:51:24.460Z,101482.06
2023-05-20T01:53:52.177Z,101485.13
2023-05-20T01:56:20.160Z,101481.47
2023-05-20T01:58:48.052Z,101481.34
2023-05-20T02:01:16.157Z,101474.69
2023-05-20T02:03:44.657Z,101473.19
2023-05-20T02:06:12.727Z,101476.53
2023-05-20T02:08:40.549Z,101473.28
2023-05-20T02:11:08.578Z,101466.91
2023-05-20T02:13:37.803Z,101474.06
2023-05-20T02:16:06.752Z,101471.13
2023-05-20T02:18:35.779Z,101475.75
2023-05-20T02:21:04.682Z,101473.13
2023-05-20T02:23:32.796Z,101471.63
2023-05-20T02:26:01.909Z,101478.72
2023-05-20T02:28:29.633Z,101476.38
2023-05-20T02:30:57.690Z,101476.38
2023-05-20T02:33:28.026Z,101478.28
2023-05-20T02:35:56.102Z,101480.25
2023-05-20T02:38:24.120Z,101484.56
2023-05-20T02:40:52.046Z,101478.38
2023-05-20T02:43:19.803Z,101485.28
2023-05-20T02:45:48.141Z,101484.59
2023-05-20T02:48:16.392Z,101490.75
2023-05-20T02:50:44.692Z,101480.72
2023-05-20T02:53:12.594Z,101479.47
2023-05-20T02:55:41.594Z,101488.97
2023-05-20T02:58:09.334Z,101492.50
2023-05-20T03:00:41.049Z,101483.66
2023-05-20T03:03:14.121Z,101485.50
2023-05-20T03:05:45.986Z,101487.78
2023-05-20T03:08:13.734Z,101488.91
2023-05-20T03:10:41.760Z,101490.41
2023-05-20T03:13:11.415Z,101483.38
2023-05-20T03:15:39.904Z,101492.03
2023-05-20T03:18:11.045Z,101487.50
2023-05-20T03:20:40.155Z,101487.41
2023-05-20T03:23:08.657Z,101487.31
2023-05-20T03:25:39.098Z,101504.66
2023-05-20T03:28:06.985Z,101497.50
2023-05-20T03:30:37.858Z,101507.34
2023-05-20T03:33:06.123Z,101506.31
2023-05-20T03:35:34.795Z,101499.84
2023-05-20T03:38:03.029Z,101505.88
2023-05-20T03:40:31.898Z,101504.72
2023-05-20T03:42:59.684Z,101500.28
2023-05-20T03:45:27.739Z,101503.13
2023-05-20T03:48:03.759Z,101490.22
2023-05-20T03:50:34.275Z,101492.03
2023-05-20T03:53:02.434Z,101498.38
2023-05-20T03:55:37.267Z,101502.69
2023-05-20T03:58:05.286Z,101498.91
2023-05-20T04:00:34.453Z,101496.84
2023-05-20T04:03:02.881Z,101502.28
2023-05-20T04:05:31.722Z,101504.91
2023-05-20T04:08:01.215Z,101505.78
2023-05-20T04:10:29.297Z,101509.28
2023-05-20T04:12:57.012Z,101501.75
2023-05-20T04:15:25.337Z,101496.03
2023-05-20T04:17:56.885Z,101499.97
2023-05-20T04:20:25.596Z,101503.19
2023-05-20T04:22:56.251Z,101507.81
2023-05-20T04:25:24.458Z,101504.16
2023-05-20T04:27:54.485Z,101500.91
2023-05-20T04:30:22.578Z,101495.78
2023-05-20T04:32:51.524Z,101506.59
2023-05-20T04:35:19.729Z,101504.84
2023-05-20T04:37:49.670Z,101500.47
2023-05-20T04:40:18.790Z,101497.84
2023-05-20T04:42:47.428Z,101503.31
2023-05-20T04:45:16.548Z,101492.44
2023-05-20T04:47:44.470Z,101493.25
2023-05-20T04:50:13.736Z,101492.63
2023-05-20T04:52:43.821Z,101493.78
2023-05-20T04:55:13.501Z,101495.03
2023-05-20T04:57:44.003Z,101494.59
2023-05-20T05:00:13.425Z,101497.69
2023-05-20T05:02:42.546Z,101498.81
2023-05-20T05:05:10.733Z,101505.69
2023-05-20T05:07:39.592Z,101502.13
2023-05-20T05:10:08.119Z,101511.50
2023-05-20T05:12:35.912Z,101516.03
2023-05-20T05:15:05.828Z,101520.59
2023-05-20T05:17:33.649Z,101507.03
2023-05-20T05:20:02.276Z,101506.28
2023-05-20T05:22:33.100Z,101506.75
2023-05-20T05:25:01.118Z,101511.59
2023-05-20T05:27:28.910Z,101503.13
2023-05-20T05:29:56.887Z,101509.00
2023-05-20T05:32:24.799Z,101503.00
2023-05-20T05:34:53.057Z,101513.31
2023-05-20T05:37:21.308Z,101508.38
2023-05-20T05:39:49.386Z,101513.13
2023-05-20T05:42:17.264Z,101504.59
2023-05-20T05:44:45.663Z,101511.19
2023-05-20T05:47:13.743Z,101511.50
2023-05-20T05:49:41.925Z,101512.16
2023-05-20T05:52:09.994Z,101520.50
2023-05-20T05:54:38.076Z,101506.63
2023-05-20T05:57:07.797Z,101510.84
2023-05-20T05:59:36.643Z,101512.25
2023-05-20T06:02:04.687Z,101516.13
2023-05-20T06:04:32.871Z,101514.50
2023-05-20T06:07:00.699Z,101517.97
2023-05-20T06:09:28.856Z,101517.47
2023-05-20T06:11:56.881Z,101519.47
2023-05-20T06:14:24.897Z,101524.78
2023-05-20T06:16:52.684Z,101522.88
2023-05-20T06:19:21.308Z,101526.66
2023-05-20T06:21:49.102Z,101512.69
2023-05-20T06:24:17.079Z,101511.25
2023-05-20T06:26:46.159Z,101521.66
2023-05-20T06:29:14.272Z,101513.72
2023-05-20T06:31:42.081Z,101514.56
2023-05-20T06:34:10.131Z,101509.69
2023-05-20T06:36:37.961Z,101514.97
2023-05-20T06:39:11.433Z,101513.00
2023-05-20T06:41:40.661Z,101513.69
2023-05-20T06:44:11.437Z,101507.56
2023-05-20T06:46:59.773Z,101500.41
2023-05-20T06:49:28.808Z,101497.19
2023-05-20T06:51:56.601Z,101499.66
2023-05-20T06:54:25.895Z,101497.84
2023-05-20T06:56:55.747Z,101494.28
2023-05-20T06:59:24.427Z,101493.19
2023-05-20T07:01:52.295Z,101486.88
2023-05-20T07:04:20.545Z,101485.34
2023-05-20T07:06:48.894Z,101484.72
2023-05-20T07:09:17.157Z,101475.47
2023-05-20T07:11:46.636Z,101485.03
2023-05-20T07:14:14.642Z,101480.28
2023-05-20T07:16:42.490Z,101477.19
2023-05-20T07:19:10.822Z,101469.84
2023-05-20T07:21:38.693Z,101468.44
2023-05-20T07:24:24.709Z,101467.97
2023-05-20T07:26:52.546Z,101468.94
2023-05-20T07:29:20.582Z,101471.13
2023-05-20T07:31:48.279Z,101470.34
2023-05-20T07:34:17.519Z,101464.50
2023-05-20T07:36:45.256Z,101464.31
2023-05-20T07:39:15.235Z,101460.38
2023-05-20T07:41:43.790Z,101453.31
2023-05-20T07:44:13.293Z,101454.38
2023-05-20T07:46:45.018Z,101447.41
2023-05-20T07:49:13.468Z,101447.03
2023-05-20T07:51:41.812Z,101443.81
2023-05-20T07:54:09.937Z,101437.66
2023-05-20T07:56:38.170Z,101442.97
2023-05-20T07:59:07.350Z,101436.66
2023-05-20T08:01:42.708Z,101443.41
2023-05-20T08:04:12.313Z,101437.31
2023-05-20T08:06:41.336Z,101438.13
2023-05-20T08:09:13.175Z,101445.56
2023-05-20T08:11:47.531Z,101447.44
2023-05-20T08:14:16.339Z,101441.97
2023-05-20T08:16:48.240Z,101443.66
2023-05-20T08:19:16.612Z,101435.31
2023-05-20T08:21:47.626Z,101442.53
2023-05-20T08:24:16.084Z,101437.72
2023-05-20T08:26:44.238Z,101435.94
2023-05-20T08:29:12.437Z,101435.84
2023-05-20T08:31:40.310Z,101433.56
2023-05-20T08:34:08.543Z,101436.47
2023-05-20T08:36:36.300Z,101439.69
2023-05-20T08:39:05.786Z,101428.88
2023-05-20T08:41:33.631Z,101430.69
2023-05-20T08:44:03.078Z,101433.09
2023-05-20T08:46:34.464Z,101441.16
2023-05-20T08:49:03.127Z,101432.53
2023-05-20T08:51:33.373Z,101430.16
2023-05-20T08:54:01.340Z,101430.59
2023-05-20T08:56:30.936Z,101425.97
2023-05-20T08:58:59.261Z,101422.91
2023-05-20T09:01:27.027Z,101417.22
2023-05-20T09:03:55.155Z,101410.91
2023-05-20T09:06:24.171Z,101421.97
2023-05-20T09:08:52.834Z,101409.72
2023-05-20T09:11:23.133Z,101408.50
2023-05-20T09:13:51.649Z,101406.69
2023-05-20T09:16:19.673Z,101405.63
2023-05-20T09:18:47.979Z,101411.84
2023-05-20T09:21:15.819Z,101408.38
2023-05-20T09:23:49.337Z,101410.47
2023-05-20T09:26:19.126Z,101404.19
2023-05-20T09:28:47.495Z,101402.94
2023-05-20T09:31:15.683Z,101406.16
2023-05-20T09:33:43.985Z,101416.66
2023-05-20T09:36:14.657Z,101401.19
2023-05-20T09:38:45.569Z,101399.81
2023-05-20T09:41:15.525Z,101395.16
2023-05-20T09:43:46.998Z,101402.28
2023-05-20T09:46:15.532Z,101406.97
2023-05-20T09:48:44.366Z,101396.94
2023-05-20T09:51:13.448Z,101391.84
2023-05-20T09:53:43.139Z,101397.88
2023-05-20T09:56:11.522Z,101396.44
2023-05-20T09:58:40.479Z,101396.31
2023-05-20T10:01:08.461Z,101392.53
2023-05-20T10:03:36.638Z,101393.63
2023-05-20T10:06:10.726Z,101389.34
2023-05-20T10:09:11.609Z,101386.56
2023-05-20T10:12:07.727Z,101382.75
2023-05-20T10:15:10.269Z,101365.41
2023-05-20T10:17:50.574Z,101378.94
2023-05-20T10:20:18.876Z,101370.53
2023-05-20T10:22:59.098Z,101368.38
2023-05-20T10:25:28.562Z,101374.44
2023-05-20T10:28:08.516Z,101369.53
2023-05-20T10:30:37.338Z,101374.22
2023-05-20T10:33:07.237Z,101368.50
2023-05-20T10:35:35.724Z,101358.00
2023-05-20T10:38:12.026Z,101367.78
2023-05-20T10:40:40.894Z,101364.09
2023-05-20T10:43:13.391Z,101361.69
2023-05-20T10:45:52.020Z,101354.63
2023-05-20T10:48:32.890Z,101351.75
2023-05-20T10:51:05.933Z,101337.50
2023-05-20T10:53:42.132Z,101338.22
2023-05-20T10:56:23.800Z,101343.19
2023-05-20T10:58:53.479Z,101345.31
2023-05-20T11:01:26.791Z,101334.16
2023-05-20T11:03:57.325Z,101328.66
2023-05-20T11:06:30.503Z,101329.84
2023-05-20T11:09:07.352Z,101329.19
2023-05-20T11:11:35.521Z,101329.09
2023-05-20T11:14:03.330Z,101333.94
2023-05-20T11:16:31.575Z,101319.75
2023-05-20T11:18:59.446Z,101316.75
2023-05-20T11:21:27.572Z,101314.19
2023-05-20T11:23:55.630Z,101303.94
2023-05-20T11:26:23.676Z,101301.03
2023-05-20T11:28:51.934Z,101308.03
2023-05-20T11:31:20.132Z,101308.16
2023-05-20T11:33:47.797Z,101300.84
2023-05-20T11:36:27.024Z,101306.84
2023-05-20T11:38:59.379Z,101304.25
2023-05-20T11:41:28.114Z,101300.38
2023-05-20T11:44:01.950Z,101303.53
2023-05-20T11:46:29.939Z,101306.63
2023-05-20T11:48:58.601Z,101303.53
2023-05-20T11:51:30.531Z,101308.69
2023-05-20T11:54:03.243Z,101308.72
2023-05-20T11:56:33.443Z,101307.19
2023-05-20T11:59:01.993Z,101307.25
2023-05-20T12:01:38.364Z,101307.44
2023-05-20T12:04:07.010Z,101306.47
2023-05-20T12:06:37.197Z,101305.53
2023-05-20T12:09:07.405Z,101304.59
2023-05-20T12:11:37.373Z,101307.31
2023-05-20T12:14:05.415Z,101309.47
2023-05-20T12:16:35.044Z,101292.59
2023-05-20T12:19:03.195Z,101293.28
2023-05-20T12:21:32.092Z,101289.78
2023-05-20T12:24:01.180Z,101299.47
2023-05-20T12:26:30.350Z,101292.66
2023-05-20T12:28:58.164Z,101300.19
2023-05-20T12:31:26.569Z,101298.06
2023-05-20T12:33:54.439Z,101295.50
2023-05-20T12:36:22.440Z,101289.66
2023-05-20T12:38:50.240Z,101297.41
2023-05-20T12:41:18.197Z,101291.06
2023-05-20T12:43:45.864Z,101290.22
2023-05-20T12:46:13.924Z,101291.91
2023-05-20T12:48:42.662Z,101277.22
2023-05-20T12:51:10.693Z,101274.03
2023-05-20T12:53:38.443Z,101267.56
2023-05-20T12:56:07.912Z,101273.25
2023-05-20T12:58:35.820Z,101266.19
2023-05-20T13:01:03.868Z,101262.53
2023-05-20T13:03:31.602Z,101270.66
2023-05-20T13:05:59.719Z,101271.59
2023-05-20T13:08:28.727Z,101258.34
2023-05-20T13:10:56.905Z,101265.97
2023-05-20T13:13:25.061Z,101255.53
2023-05-20T13:15:54.874Z,101247.84
2023-05-20T13:18:22.710Z,101253.09
2023-05-20T13:20:50.681Z,101257.16
2023-05-20T13:23:18.472Z,101257.69
2023-05-20T13:25:46.479Z,101250.47
2023-05-20T13:28:16.856Z,101260.41
2023-05-20T13:30:45.137Z,101251.59
2023-05-20T13:33:13.032Z,101251.72
2023-05-20T13:35:41.099Z,101256.53
2023-05-20T13:38:08.795Z,101239.81
2023-05-20T13:40:36.988Z,101251.81
2023-05-20T13:43:04.697Z,101246.88
2023-05-20T13:45:32.746Z,101244.47
2023-05-20T13:48:00.578Z,101243.78
2023-05-20T13:50:28.556Z,101238.94
2023-05-20T13:52:56.264Z,101243.59
2023-05-20T13:55:24.990Z,101241.22
2023-05-20T13:57:54.341Z,101235.59
2023-05-20T14:00:22.552Z,101230.16
2023-05-20T14:02:50.542Z,101225.34
2023-05-20T14:05:18.981Z,101227.81
2023-05-20T14:07:46.733Z,101233.50
2023-05-20T14:10:15.018Z,101221.78
2023-05-20T14:12:47.938Z,101217.78
2023-05-20T14:15:16.241Z,101212.50
2023-05-20T14:17:44.095Z,101218.09
2023-05-20T14:20:12.387Z,101210.84
2023-05-20T14:22:40.102Z,101211.72
2023-05-20T14:25:08.390Z,101213.72
2023-05-20T14:27:36.374Z,101217.78
2023-05-20T14:30:04.951Z,101214.56
2023-05-20T14:32:32.748Z,101214.72
2023-05-20T14:35:00.944Z,101212.56
2023-05-20T14:37:28.904Z,101206.34
2023-05-20T14:39:57.192Z,101216.22
2023-05-20T14:42:25.239Z,101202.91
2023-05-20T14:44:53.207Z,101203.53
2023-05-20T14:47:22.330Z,101201.97
2023-05-20T14:49:50.844Z,101203.22
2023-05-20T14:52:19.121Z,101201.00
2023-05-20T14:54:47.367Z,101194.19
2023-05-20T14:57:16.147Z,101203.22
2023-05-20T14:59:44.558Z,101195.44
2023-05-20T15:02:15.431Z,101200.34
2023-05-20T15:04:46.659Z,101193.41
2023-05-20T15:07:15.688Z,101187.38
2023-05-20T15:09:44.033Z,101198.31
2023-05-20T15:12:11.976Z,101190.28
2023-05-20T15:14:40.276Z,101187.59
2023-05-20T15:17:08.476Z,101194.03
2023-05-20T15:19:39.690Z,101188.91
2023-05-20T15:22:09.039Z,101178.19
2023-05-20T15:24:37.012Z,101183.88
2023-05-20T15:27:05.103Z,101179.47
2023-05-20T15:29:33.247Z,101186.75
2023-05-20T15:32:01.177Z,101184.09
2023-05-20T15:34:29.184Z,101174.31
2023-05-20T15:36:56.951Z,101171.28
2023-05-20T15:39:26.339Z,101172.47
2023-05-20T15:41:54.233Z,101179.72
2023-05-20T15:44:22.218Z,101165.59
2023-05-20T15:46:49.990Z,101173.16
2023-05-20T15:49:17.951Z,101169.75
2023-05-20T15:51:52.252Z,101171.81
2023-05-20T15:54:27.823Z,101170.94
2023-05-20T15:56:55.762Z,101176.31
2023-05-20T15:59:23.869Z,101174.72
2023-05-20T16:01:51.663Z,101191.88
2023-05-20T16:04:20.460Z,101183.16
2023-05-20T16:06:48.498Z,101173.28
2023-05-20T16:09:16.561Z,101180.84
2023-05-20T16:11:44.298Z,101174.28
2023-05-20T16:14:12.397Z,101174.16
2023-05-20T16:16:40.237Z,101185.34
2023-05-20T16:19:08.366Z,101173.28
2023-05-20T16:21:36.299Z,101171.22
2023-05-20T16:24:04.652Z,101178.22
2023-05-20T16:26:32.482Z,101180.50
2023-05-20T16:29:00.574Z,101186.41
2023-05-20T16:31:28.429Z,101177.38
2023-05-20T16:33:57.460Z,101173.00
2023-05-20T16:36:25.863Z,101181.75
2023-05-20T16:38:54.059Z,101185.88
2023-05-20T16:41:22.906Z,101185.69
2023-05-20T16:43:51.044Z,101179.94
2023-05-20T16:46:18.888Z,101191.47
2023-05-20T16:48:47.037Z,101187.19
2023-05-20T16:51:14.751Z,101190.31
2023-05-20T16:53:42.740Z,101191.25
2023-05-20T16:56:10.491Z,101186.13
2023-05-20T16:58:38.484Z,101190.97
2023-05-20T17:01:06.848Z,101195.03
2023-05-20T17:03:36.119Z,101185.53
2023-05-20T17:06:04.009Z,101191.06
2023-05-20T17:08:31.961Z,101189.56
2023-05-20T17:11:00.527Z,101188.72
2023-05-20T17:13:28.497Z,101190.44
2023-05-20T17:15:56.683Z,101196.19
2023-05-20T17:18:24.685Z,101198.59
2023-05-20T17:20:52.456Z,101198.22
2023-05-20T17:23:20.610Z,101192.81
2023-05-20T17:25:48.366Z,101198.16
2023-05-20T17:28:16.484Z,101196.44
2023-05-20T17:30:44.213Z,101198.78
2023-05-20T17:33:12.411Z,101197.72
2023-05-20T17:35:40.203Z,101194.75
2023-05-20T17:38:08.248Z,101206.63
2023-05-20T17:40:36.589Z,101191.69
2023-05-20T17:43:04.843Z,101206.84
2023-05-20T17:45:32.542Z,101200.41
2023-05-20T17:48:00.917Z,101203.28
2023-05-20T17:50:28.620Z,101207.63
2023-05-20T17:52:56.636Z,101208.41
2023-05-20T17:55:24.403Z,101206.16
2023-05-20T17:57:52.376Z,101205.59
2023-05-20T18:00:21.612Z,101209.81
2023-05-20T18:02:50.022Z,101211.84
2023-05-20T18:05:18.290Z,101210.22
2023-05-20T18:07:46.342Z,101212.06
2023-05-20T18:10:14.495Z,101208.94
2023-05-20T18:12:43.068Z,101204.09
2023-05-20T18:15:11.215Z,101201.53
2023-05-20T18:17:40.603Z,101208.53
2023-05-20T18:20:09.806Z,101210.88
2023-05-20T18:22:37.970Z,101209.84
2023-05-20T18:25:06.473Z,101215.63
2023-05-20T18:27:34.426Z,101213.63
2023-05-20T18:30:02.186Z,101219.13
2023-05-20T18:32:30.187Z,101220.50
2023-05-20T18:34:58.342Z,101224.16
2023-05-20T18:37:27.870Z,101215.94
2023-05-20T18:39:58.068Z,101225.38
2023-05-20T18:42:26.542Z,101225.91
2023-05-20T18:44:54.678Z,101225.06
2023-05-20T18:47:22.804Z,101232.41
2023-05-20T18:49:50.589Z,101229.09
2023-05-20T18:52:18.644Z,101224.53
2023-05-20T18:54:46.386Z,101228.13
2023-05-20T18:57:14.853Z,101228.50
2023-05-20T18:59:42.557Z,101220.44
2023-05-20T19:02:10.557Z,101217.59
2023-05-20T19:04:38.835Z,101219.31
2023-05-20T19:07:07.029Z,101215.78
2023-05-20T19:09:34.740Z,101223.94
2023-05-20T19:12:02.720Z,101206.81
2023-05-20T19:14:30.711Z,101224.41
2023-05-20T19:17:00.092Z,101211.41
2023-05-20T19:19:28.209Z,101213.91
2023-05-20T19:21:56.399Z,101213.81
2023-05-20T19:24:24.141Z,101221.50
2023-05-20T19:26:52.240Z,101219.47
2023-05-20T19:29:19.964Z,101219.91
2023-05-20T19:31:47.952Z,101213.34
2023-05-20T19:34:15.774Z,101214.22
2023-05-20T19:36:44.227Z,101218.75
2023-05-20T19:39:12.264Z,101211.91
2023-05-20T19:41:40.383Z,101213.22
2023-05-20T19:44:11.832Z,101202.56
2023-05-20T19:46:40.982Z,101210.25
2023-05-20T19:49:08.743Z,101209.41
2023-05-20T19:51:36.950Z,101216.97
2023-05-20T19:54:04.925Z,101220.84
2023-05-20T19:56:33.011Z,101201.84
2023-05-20T19:59:01.780Z,101214.47
2023-05-20T20:01:30.159Z,101219.00
2023-05-20T20:03:57.887Z,101222.41
2023-05-20T20:06:26.101Z,101219.13
2023-05-20T20:08:53.854Z,101223.34
2023-05-20T20:11:23.777Z,101219.06
2023-05-20T20:13:51.663Z,101223.91
2023-05-20T20:16:19.753Z,101220.00
2023-05-20T20:18:47.570Z,101214.41
2023-05-20T20:21:15.746Z,101209.63
2023-05-20T20:23:43.593Z,101215.41
2023-05-20T20:26:13.801Z,101225.50
2023-05-20T20:28:41.670Z,101228.22
2023-05-20T20:31:09.744Z,101235.50
2023-05-20T20:33:37.550Z,101229.84
2023-05-20T20:36:05.822Z,101234.19
2023-05-20T20:38:33.601Z,101235.13
2023-05-20T20:41:03.865Z,101226.97
2023-05-20T20:43:34.689Z,101234.84
2023-05-20T20:46:02.789Z,101240.41
2023-05-20T20:48:30.645Z,101233.78
2023-05-20T20:50:59.145Z,101227.03
2023-05-20T20:53:26.884Z,101230.06
2023-05-20T20:55:57.025Z,101225.50
2023-05-20T20:58:24.820Z,101220.34
2023-05-20T21:00:53.184Z,101218.69
2023-05-20T21:03:24.028Z,101217.19
2023-05-20T21:05:52.138Z,101218.88
2023-05-20T21:08:22.232Z,101215.78
2023-05-20T21:10:50.236Z,101216.84
2023-05-20T21:13:18.078Z,101210.69
2023-05-20T21:15:46.510Z,101212.28
2023-05-20T21:18:18.143Z,101213.94
2023-05-20T21:20:46.105Z,101209.06
2023-05-20T21:23:13.876Z,101210.84
2023-05-20T21:25:41.892Z,101215.47
2023-05-20T21:28:09.844Z,101216.09
2023-05-20T21:30:38.063Z,101210.94
2023-05-20T21:33:05.945Z,101208.91
2023-05-20T21:35:34.126Z,101211.06
2023-05-20T21:38:02.048Z,101214.25
2023-05-20T21:40:30.379Z,101212.78
2023-05-20T21:42:58.390Z,101205.00
2023-05-20T21:45:26.450Z,101200.75
2023-05-20T21:47:54.258Z,101209.22
2023-05-20T21:50:22.554Z,101211.81
2023-05-20T21:52:50.584Z,101203.66
2023-05-20T21:55:23.360Z,101211.19
2023-05-20T21:57:51.505Z,101209.41
2023-05-20T22:00:20.764Z,101207.34
2023-05-20T22:02:50.807Z,101212.97
2023-05-20T22:05:19.779Z,101224.31
2023-05-20T22:07:48.011Z,101223.63
2023-05-20T22:10:17.527Z,101220.88
2023-05-20T22:12:45.791Z,101221.19
2023-05-20T22:15:14.126Z,101216.69
2023-05-20T22:17:42.428Z,101224.19
2023-05-20T22:20:11.437Z,101228.16
2023-05-20T22:22:39.371Z,101218.22
2023-05-20T22:25:08.122Z,101214.91
2023-05-20T22:27:35.941Z,101213.50
2023-05-20T22:30:06.178Z,101217.31
2023-05-20T22:32:34.331Z,101208.13
2023-05-20T22:35:02.766Z,101218.84
2023-05-20T22:37:30.524Z,101210.88
2023-05-20T22:39:58.551Z,101205.41
2023-05-20T22:42:26.336Z,101204.31
2023-05-20T22:44:54.412Z,101203.88
2023-05-20T22:47:22.175Z,101207.50
2023-05-20T22:49:50.884Z,101214.69
2023-05-20T22:52:18.759Z,101201.44
2023-05-20T22:54:46.848Z,101204.16
2023-05-20T22:57:14.633Z,101205.50
2023-05-20T22:59:42.995Z,101210.19
2023-05-20T23:02:11.018Z,101210.81
2023-05-20T23:04:39.152Z,101206.50
2023-05-20T23:07:07.004Z,101206.94
2023-05-20T23:09:35.012Z,101205.53
2023-05-20T23:12:02.768Z,101212.69
2023-05-20T23:14:30.752Z,101205.06
2023-05-20T23:16:58.536Z,101208.72
2023-05-20T23:19:26.908Z,101209.06
2023-05-20T23:21:54.606Z,101213.31
2023-05-20T23:24:22.544Z,101197.53
2023-05-20T23:26:50.683Z,101208.19
2023-05-20T23:29:18.643Z,101212.03
2023-05-20T23:31:47.235Z,101217.50
2023-05-20T23:34:16.373Z,101209.91
2023-05-20T23:36:45.753Z,101214.59
2023-05-20T23:39:14.418Z,101208.97
2023-05-20T23:41:43.716Z,101204.22
2023-05-20T23:44:11.671Z,101207.63
2023-05-20T23:46:39.685Z,101207.13
2023-05-20T23:49:10.194Z,101209.81
2023-05-20T23:51:37.974Z,101208.81
2023-05-20T23:54:06.104Z,101201.84
2023-05-20T23:56:33.746Z,101206.41
2023-05-20T23:59:01.720Z,101203.34
